sensor_id;sensor_type;location;lat;lon;timestamp;pressure;altitude;pressure_sealevel;temperature;humidity
18145;BME280;14857;41.200;-8.326;2022-11-11T00:00:03;100866.13;;;13.42;100.00
18145;BME280;14857;41.200;-8.326;2022-11-11T00:02:54;100872.00;;;13.33;100.00
18145;BME280;14857;41.200;-8.326;2022-11-11T00:05:41;100871.59;;;13.39;100.00
18145;BME280;14857;41.200;-8.326;2022-11-11T00:08:28;100864.75;;;13.36;100.00
18145;BME280;14857;41.200;-8.326;2022-11-11T00:11:17;100867.69;;;13.57;100.00
18145;BME280;14857;41.200;-8.326;2022-11-11T00:14:04;100868.66;;;13.31;100.00
18145;BME280;14857;41.200;-8.326;2022-11-11T00:16:52;100861.50;;;13.45;100.00
18145;BME280;14857;41.200;-8.326;2022-11-11T00:19:56;100852.56;;;13.23;100.00
18145;BME280;14857;41.200;-8.326;2022-11-11T00:22:57;100858.47;;;13.13;100.00
18145;BME280;14857;41.200;-8.326;2022-11-11T00:26:02;100858.59;;;13.25;100.00
18145;BME280;14857;41.200;-8.326;2022-11-11T00:29:12;100852.34;;;13.26;100.00
18145;BME280;14857;41.200;-8.326;2022-11-11T00:32:08;100851.19;;;13.04;100.00
18145;BME280;14857;41.200;-8.326;2022-11-11T00:36:45;100725.81;;;12.45;100.00
18145;BME280;14857;41.200;-8.326;2022-11-11T00:39:32;100831.78;;;13.20;100.00
18145;BME280;14857;41.200;-8.326;2022-11-11T00:42:19;100829.06;;;13.21;100.00
18145;BME280;14857;41.200;-8.326;2022-11-11T00:45:08;100828.28;;;13.32;100.00
18145;BME280;14857;41.200;-8.326;2022-11-11T00:47:55;100821.25;;;13.32;100.00
18145;BME280;14857;41.200;-8.326;2022-11-11T00:51:00;100816.75;;;13.34;100.00
18145;BME280;14857;41.200;-8.326;2022-11-11T00:53:47;100816.00;;;13.32;100.00
18145;BME280;14857;41.200;-8.326;2022-11-11T00:56:35;100808.78;;;13.23;100.00
18145;BME280;14857;41.200;-8.326;2022-11-11T00:59:22;100816.34;;;13.28;100.00
18145;BME280;14857;41.200;-8.326;2022-11-11T01:02:10;100820.09;;;13.36;100.00
18145;BME280;14857;41.200;-8.326;2022-11-11T01:04:58;100816.34;;;13.28;100.00
18145;BME280;14857;41.200;-8.326;2022-11-11T01:07:47;100817.16;;;13.15;100.00
18145;BME280;14857;41.200;-8.326;2022-11-11T01:10:35;100815.19;;;13.19;100.00
18145;BME280;14857;41.200;-8.326;2022-11-11T01:13:28;100802.47;;;13.13;100.00
18145;BME280;14857;41.200;-8.326;2022-11-11T01:16:21;100802.38;;;13.14;100.00
18145;BME280;14857;41.200;-8.326;2022-11-11T01:19:10;100793.84;;;12.86;100.00
18145;BME280;14857;41.200;-8.326;2022-11-11T01:21:57;100802.03;;;12.81;100.00
18145;BME280;14857;41.200;-8.326;2022-11-11T01:24:45;100787.75;;;12.85;100.00
18145;BME280;14857;41.200;-8.326;2022-11-11T01:27:33;100800.75;;;12.99;100.00
18145;BME280;14857;41.200;-8.326;2022-11-11T01:30:20;100803.81;;;12.93;100.00
18145;BME280;14857;41.200;-8.326;2022-11-11T01:33:08;100784.78;;;13.02;100.00
18145;BME280;14857;41.200;-8.326;2022-11-11T01:36:02;100793.22;;;12.82;100.00
18145;BME280;14857;41.200;-8.326;2022-11-11T01:38:49;100787.53;;;12.76;100.00
18145;BME280;14857;41.200;-8.326;2022-11-11T01:41:37;100775.56;;;12.72;100.00
18145;BME280;14857;41.200;-8.326;2022-11-11T01:44:43;100780.69;;;12.73;100.00
18145;BME280;14857;41.200;-8.326;2022-11-11T01:47:31;100783.28;;;12.48;100.00
18145;BME280;14857;41.200;-8.326;2022-11-11T01:51:02;100765.25;;;12.43;100.00
18145;BME280;14857;41.200;-8.326;2022-11-11T01:53:55;100779.09;;;12.33;100.00
18145;BME280;14857;41.200;-8.326;2022-11-11T01:56:46;100765.16;;;12.45;100.00
18145;BME280;14857;41.200;-8.326;2022-11-11T01:59:36;100781.91;;;12.30;100.00
18145;BME280;14857;41.200;-8.326;2022-11-11T02:02:28;100786.44;;;12.40;100.00
18145;BME280;14857;41.200;-8.326;2022-11-11T02:05:20;100773.00;;;12.32;100.00
18145;BME280;14857;41.200;-8.326;2022-11-11T02:08:28;100772.38;;;12.54;100.00
18145;BME280;14857;41.200;-8.326;2022-11-11T02:11:20;100771.28;;;12.19;100.00
18145;BME280;14857;41.200;-8.326;2022-11-11T02:14:21;100779.75;;;12.49;100.00
18145;BME280;14857;41.200;-8.326;2022-11-11T02:17:26;100783.47;;;12.32;100.00
18145;BME280;14857;41.200;-8.326;2022-11-11T02:20:18;100764.38;;;12.18;100.00
18145;BME280;14857;41.200;-8.326;2022-11-11T02:23:10;100796.34;;;12.23;100.00
18145;BME280;14857;41.200;-8.326;2022-11-11T02:26:01;100795.53;;;12.35;100.00
18145;BME280;14857;41.200;-8.326;2022-11-11T02:28:51;100786.72;;;11.96;100.00
18145;BME280;14857;41.200;-8.326;2022-11-11T02:31:39;100790.22;;;12.09;100.00
18145;BME280;14857;41.200;-8.326;2022-11-11T02:34:31;100793.72;;;12.23;100.00
18145;BME280;14857;41.200;-8.326;2022-11-11T02:37:22;100756.31;;;12.21;100.00
18145;BME280;14857;41.200;-8.326;2022-11-11T02:40:12;100775.41;;;12.35;100.00
18145;BME280;14857;41.200;-8.326;2022-11-11T02:43:01;100755.31;;;12.09;100.00
18145;BME280;14857;41.200;-8.326;2022-11-11T02:45:48;100738.69;;;11.96;100.00
18145;BME280;14857;41.200;-8.326;2022-11-11T02:48:35;100737.97;;;11.94;100.00
18145;BME280;14857;41.200;-8.326;2022-11-11T02:51:22;100754.28;;;12.12;100.00
18145;BME280;14857;41.200;-8.326;2022-11-11T02:54:09;100737.28;;;12.04;100.00
18145;BME280;14857;41.200;-8.326;2022-11-11T02:56:56;100751.13;;;12.06;100.00
18145;BME280;14857;41.200;-8.326;2022-11-11T02:59:56;100730.59;;;11.86;100.00
18145;BME280;14857;41.200;-8.326;2022-11-11T03:02:44;100739.94;;;11.90;100.00
18145;BME280;14857;41.200;-8.326;2022-11-11T03:05:31;100734.31;;;11.96;100.00
18145;BME280;14857;41.200;-8.326;2022-11-11T03:08:18;100737.88;;;11.95;100.00
18145;BME280;14857;41.200;-8.326;2022-11-11T03:11:05;100736.66;;;12.14;100.00
18145;BME280;14857;41.200;-8.326;2022-11-11T03:13:55;100727.47;;;12.21;100.00
18145;BME280;14857;41.200;-8.326;2022-11-11T03:16:44;100723.97;;;12.07;100.00
18145;BME280;14857;41.200;-8.326;2022-11-11T03:19:49;100719.59;;;11.81;100.00
18145;BME280;14857;41.200;-8.326;2022-11-11T03:22:36;100719.03;;;11.76;100.00
18145;BME280;14857;41.200;-8.326;2022-11-11T03:25:41;100714.31;;;11.95;100.00
18145;BME280;14857;41.200;-8.326;2022-11-11T03:28:28;100694.56;;;11.90;100.00
18145;BME280;14857;41.200;-8.326;2022-11-11T03:31:15;100698.47;;;11.97;100.00
18145;BME280;14857;41.200;-8.326;2022-11-11T03:34:04;100690.28;;;11.89;100.00
18145;BME280;14857;41.200;-8.326;2022-11-11T03:37:07;100686.81;;;11.88;100.00
18145;BME280;14857;41.200;-8.326;2022-11-11T03:40:09;100690.34;;;11.60;100.00
18145;BME280;14857;41.200;-8.326;2022-11-11T03:42:56;100678.84;;;11.63;100.00
18145;BME280;14857;41.200;-8.326;2022-11-11T03:45:50;100686.22;;;11.71;100.00
18145;BME280;14857;41.200;-8.326;2022-11-11T03:48:37;100681.50;;;11.49;100.00
18145;BME280;14857;41.200;-8.326;2022-11-11T03:51:25;100681.75;;;11.58;100.00
18145;BME280;14857;41.200;-8.326;2022-11-11T03:54:12;100683.03;;;11.66;100.00
18145;BME280;14857;41.200;-8.326;2022-11-11T03:57:00;100672.56;;;11.66;100.00
18145;BME280;14857;41.200;-8.326;2022-11-11T04:00:05;100676.41;;;11.60;100.00
18145;BME280;14857;41.200;-8.326;2022-11-11T04:03:03;100669.50;;;11.59;100.00
18145;BME280;14857;41.200;-8.326;2022-11-11T04:06:09;100673.78;;;11.60;100.00
18145;BME280;14857;41.200;-8.326;2022-11-11T04:09:15;100675.47;;;11.61;100.00
18145;BME280;14857;41.200;-8.326;2022-11-11T04:12:21;100676.22;;;11.36;100.00
18145;BME280;14857;41.200;-8.326;2022-11-11T04:15:09;100682.16;;;11.12;100.00
18145;BME280;14857;41.200;-8.326;2022-11-11T04:18:13;100677.09;;;11.08;100.00
18145;BME280;14857;41.200;-8.326;2022-11-11T04:21:00;100680.09;;;11.31;100.00
18145;BME280;14857;41.200;-8.326;2022-11-11T04:24:06;100669.16;;;11.24;100.00
18145;BME280;14857;41.200;-8.326;2022-11-11T04:27:10;100661.91;;;11.28;100.00
18145;BME280;14857;41.200;-8.326;2022-11-11T04:29:58;100663.28;;;11.06;100.00
18145;BME280;14857;41.200;-8.326;2022-11-11T04:32:44;100660.59;;;10.94;100.00
18145;BME280;14857;41.200;-8.326;2022-11-11T04:35:32;100684.03;;;11.10;100.00
18145;BME280;14857;41.200;-8.326;2022-11-11T04:38:19;100656.22;;;10.80;100.00
18145;BME280;14857;41.200;-8.326;2022-11-11T04:41:23;100677.72;;;10.85;100.00
18145;BME280;14857;41.200;-8.326;2022-11-11T04:44:32;100676.47;;;11.05;100.00
18145;BME280;14857;41.200;-8.326;2022-11-11T04:47:37;100681.81;;;11.03;100.00
18145;BME280;14857;41.200;-8.326;2022-11-11T04:50:25;100684.41;;;11.03;100.00
18145;BME280;14857;41.200;-8.326;2022-11-11T04:53:14;100674.06;;;10.88;100.00
18145;BME280;14857;41.200;-8.326;2022-11-11T04:56:01;100673.59;;;10.81;100.00
18145;BME280;14857;41.200;-8.326;2022-11-11T04:59:06;100690.88;;;10.98;100.00
18145;BME280;14857;41.200;-8.326;2022-11-11T05:05:06;100679.97;;;10.91;100.00
18145;BME280;14857;41.200;-8.326;2022-11-11T05:07:53;100680.88;;;10.76;100.00
18145;BME280;14857;41.200;-8.326;2022-11-11T05:10:58;100688.66;;;10.49;100.00
18145;BME280;14857;41.200;-8.326;2022-11-11T05:13:45;100672.69;;;10.68;100.00
18145;BME280;14857;41.200;-8.326;2022-11-11T05:16:51;100677.16;;;10.52;100.00
18145;BME280;14857;41.200;-8.326;2022-11-11T05:19:56;100692.38;;;10.74;100.00
18145;BME280;14857;41.200;-8.326;2022-11-11T05:23:02;100690.03;;;10.55;100.00
18145;BME280;14857;41.200;-8.326;2022-11-11T05:25:49;100703.88;;;10.71;100.00
18145;BME280;14857;41.200;-8.326;2022-11-11T05:28:34;100697.13;;;10.67;100.00
18145;BME280;14857;41.200;-8.326;2022-11-11T05:31:22;100708.00;;;10.75;100.00
18145;BME280;14857;41.200;-8.326;2022-11-11T05:34:08;100688.19;;;10.71;100.00
18145;BME280;14857;41.200;-8.326;2022-11-11T05:36:55;100697.13;;;10.67;100.00
18145;BME280;14857;41.200;-8.326;2022-11-11T05:39:44;100695.09;;;10.72;100.00
18145;BME280;14857;41.200;-8.326;2022-11-11T05:42:31;100708.34;;;10.83;100.00
18145;BME280;14857;41.200;-8.326;2022-11-11T05:45:18;100710.88;;;10.85;100.00
18145;BME280;14857;41.200;-8.326;2022-11-11T05:48:05;100693.97;;;10.90;100.00
18145;BME280;14857;41.200;-8.326;2022-11-11T05:50:52;100711.34;;;10.91;100.00
18145;BME280;14857;41.200;-8.326;2022-11-11T05:53:39;100698.47;;;10.88;100.00
18145;BME280;14857;41.200;-8.326;2022-11-11T05:56:28;100696.50;;;10.92;100.00
18145;BME280;14857;41.200;-8.326;2022-11-11T05:59:15;100690.22;;;10.94;100.00
18145;BME280;14857;41.200;-8.326;2022-11-11T06:02:02;100688.53;;;10.93;100.00
18145;BME280;14857;41.200;-8.326;2022-11-11T06:04:49;100691.63;;;11.00;100.00
18145;BME280;14857;41.200;-8.326;2022-11-11T06:07:38;100683.84;;;11.13;100.00
18145;BME280;14857;41.200;-8.326;2022-11-11T06:10:25;100670.88;;;11.11;100.00
18145;BME280;14857;41.200;-8.326;2022-11-11T06:13:19;100662.25;;;11.09;100.00
18145;BME280;14857;41.200;-8.326;2022-11-11T06:16:07;100649.75;;;11.00;100.00
18145;BME280;14857;41.200;-8.326;2022-11-11T06:18:55;100644.78;;;10.95;100.00
18145;BME280;14857;41.200;-8.326;2022-11-11T06:21:42;100654.06;;;11.01;100.00
18145;BME280;14857;41.200;-8.326;2022-11-11T06:24:45;100644.72;;;10.97;100.00
18145;BME280;14857;41.200;-8.326;2022-11-11T06:27:53;100650.69;;;10.99;100.00
18145;BME280;14857;41.200;-8.326;2022-11-11T06:30:41;100648.22;;;10.69;100.00
18145;BME280;14857;41.200;-8.326;2022-11-11T06:33:35;100652.09;;;10.90;100.00
18145;BME280;14857;41.200;-8.326;2022-11-11T06:36:23;100656.94;;;10.96;100.00
18145;BME280;14857;41.200;-8.326;2022-11-11T06:39:10;100656.78;;;10.85;100.00
18145;BME280;14857;41.200;-8.326;2022-11-11T06:41:57;100653.88;;;10.90;100.00
18145;BME280;14857;41.200;-8.326;2022-11-11T06:44:44;100662.38;;;10.93;100.00
18145;BME280;14857;41.200;-8.326;2022-11-11T06:47:33;100655.66;;;10.89;100.00
18145;BME280;14857;41.200;-8.326;2022-11-11T06:50:21;100644.25;;;10.90;100.00
18145;BME280;14857;41.200;-8.326;2022-11-11T06:53:09;100652.38;;;11.00;100.00
18145;BME280;14857;41.200;-8.326;2022-11-11T06:55:57;100653.22;;;11.00;100.00
18145;BME280;14857;41.200;-8.326;2022-11-11T06:58:44;100635.19;;;10.96;100.00
18145;BME280;14857;41.200;-8.326;2022-11-11T07:01:31;100656.16;;;11.08;100.00
18145;BME280;14857;41.200;-8.326;2022-11-11T07:04:20;100659.75;;;11.07;100.00
18145;BME280;14857;41.200;-8.326;2022-11-11T07:07:07;100648.19;;;10.97;100.00
18145;BME280;14857;41.200;-8.326;2022-11-11T07:09:55;100664.06;;;10.94;100.00
18145;BME280;14857;41.200;-8.326;2022-11-11T07:12:42;100663.75;;;10.99;100.00
18145;BME280;14857;41.200;-8.326;2022-11-11T07:15:30;100649.59;;;10.75;100.00
18145;BME280;14857;41.200;-8.326;2022-11-11T07:18:17;100657.91;;;10.81;100.00
18145;BME280;14857;41.200;-8.326;2022-11-11T07:21:05;100663.94;;;11.10;100.00
18145;BME280;14857;41.200;-8.326;2022-11-11T07:23:53;100674.88;;;11.02;100.00
18145;BME280;14857;41.200;-8.326;2022-11-11T07:26:40;100662.75;;;10.87;100.00
18145;BME280;14857;41.200;-8.326;2022-11-11T07:29:27;100679.66;;;10.96;100.00
18145;BME280;14857;41.200;-8.326;2022-11-11T07:32:14;100669.38;;;10.93;100.00
18145;BME280;14857;41.200;-8.326;2022-11-11T07:35:02;100681.34;;;10.97;100.00
18145;BME280;14857;41.200;-8.326;2022-11-11T07:37:51;100683.31;;;10.93;100.00
18145;BME280;14857;41.200;-8.326;2022-11-11T07:40:39;100686.13;;;11.04;100.00
18145;BME280;14857;41.200;-8.326;2022-11-11T07:43:26;100682.00;;;11.15;100.00
18145;BME280;14857;41.200;-8.326;2022-11-11T07:46:13;100682.66;;;11.04;100.00
18145;BME280;14857;41.200;-8.326;2022-11-11T07:48:59;100704.13;;;11.09;100.00
18145;BME280;14857;41.200;-8.326;2022-11-11T07:51:46;100697.69;;;11.00;100.00
18145;BME280;14857;41.200;-8.326;2022-11-11T07:54:36;100703.47;;;11.05;100.00
18145;BME280;14857;41.200;-8.326;2022-11-11T07:57:23;100699.09;;;11.06;100.00
18145;BME280;14857;41.200;-8.326;2022-11-11T08:00:11;100716.00;;;10.86;100.00
18145;BME280;14857;41.200;-8.326;2022-11-11T08:02:59;100710.69;;;10.88;100.00
18145;BME280;14857;41.200;-8.326;2022-11-11T08:05:54;100708.63;;;10.93;100.00
18145;BME280;14857;41.200;-8.326;2022-11-11T08:08:41;100718.50;;;11.30;100.00
18145;BME280;14857;41.200;-8.326;2022-11-11T08:11:30;100714.66;;;11.36;100.00
18145;BME280;14857;41.200;-8.326;2022-11-11T08:14:35;100705.03;;;11.63;100.00
18145;BME280;14857;41.200;-8.326;2022-11-11T08:17:22;100717.53;;;11.99;100.00
18145;BME280;14857;41.200;-8.326;2022-11-11T08:20:10;100710.66;;;12.10;100.00
18145;BME280;14857;41.200;-8.326;2022-11-11T08:22:56;100722.97;;;12.35;100.00
18145;BME280;14857;41.200;-8.326;2022-11-11T08:26:05;100719.00;;;12.55;100.00
18145;BME280;14857;41.200;-8.326;2022-11-11T08:28:53;100716.34;;;12.80;100.00
18145;BME280;14857;41.200;-8.326;2022-11-11T08:31:41;100706.03;;;13.02;100.00
18145;BME280;14857;41.200;-8.326;2022-11-11T08:34:27;100706.47;;;13.09;100.00
18145;BME280;14857;41.200;-8.326;2022-11-11T08:37:15;100705.88;;;13.42;100.00
18145;BME280;14857;41.200;-8.326;2022-11-11T08:40:02;100702.25;;;13.19;100.00
18145;BME280;14857;41.200;-8.326;2022-11-11T08:42:49;100711.78;;;13.69;100.00
18145;BME280;14857;41.200;-8.326;2022-11-11T08:45:38;100705.38;;;13.84;100.00
18145;BME280;14857;41.200;-8.326;2022-11-11T08:48:25;100701.25;;;13.69;100.00
18145;BME280;14857;41.200;-8.326;2022-11-11T08:51:12;100698.38;;;14.31;100.00
18145;BME280;14857;41.200;-8.326;2022-11-11T08:53:59;100695.00;;;14.29;100.00
18145;BME280;14857;41.200;-8.326;2022-11-11T08:56:46;100687.19;;;14.05;100.00
18145;BME280;14857;41.200;-8.326;2022-11-11T08:59:33;100692.97;;;14.78;100.00
18145;BME280;14857;41.200;-8.326;2022-11-11T09:02:22;100674.97;;;17.54;100.00
18145;BME280;14857;41.200;-8.326;2022-11-11T09:05:09;100650.06;;;20.30;100.00
18145;BME280;14857;41.200;-8.326;2022-11-11T09:07:59;100642.16;;;24.66;100.00
18145;BME280;14857;41.200;-8.326;2022-11-11T09:10:46;100644.09;;;27.31;94.55
18145;BME280;14857;41.200;-8.326;2022-11-11T09:13:33;100651.94;;;29.48;77.25
18145;BME280;14857;41.200;-8.326;2022-11-11T09:16:21;100651.78;;;31.39;68.92
18145;BME280;14857;41.200;-8.326;2022-11-11T09:19:09;100651.81;;;32.97;61.72
18145;BME280;14857;41.200;-8.326;2022-11-11T09:21:56;100632.94;;;31.62;61.71
18145;BME280;14857;41.200;-8.326;2022-11-11T09:24:43;100646.31;;;31.57;57.88
18145;BME280;14857;41.200;-8.326;2022-11-11T09:27:30;100640.06;;;28.66;63.93
18145;BME280;14857;41.200;-8.326;2022-11-11T09:30:18;100644.19;;;28.76;67.51
18145;BME280;14857;41.200;-8.326;2022-11-11T09:33:05;100637.44;;;28.27;67.87
18145;BME280;14857;41.200;-8.326;2022-11-11T09:35:53;100638.19;;;29.18;65.40
18145;BME280;14857;41.200;-8.326;2022-11-11T09:38:40;100643.53;;;29.31;66.85
18145;BME280;14857;41.200;-8.326;2022-11-11T09:41:35;100637.69;;;31.19;60.91
18145;BME280;14857;41.200;-8.326;2022-11-11T09:44:41;100641.78;;;30.55;61.13
18145;BME280;14857;41.200;-8.326;2022-11-11T09:47:38;100649.50;;;28.89;62.24
18145;BME280;14857;41.200;-8.326;2022-11-11T09:50:30;100636.63;;;29.04;65.11
18145;BME280;14857;41.200;-8.326;2022-11-11T09:53:23;100631.56;;;30.57;62.48
18145;BME280;14857;41.200;-8.326;2022-11-11T09:56:15;100634.38;;;30.01;60.33
18145;BME280;14857;41.200;-8.326;2022-11-11T09:59:18;100628.75;;;26.37;70.14
18145;BME280;14857;41.200;-8.326;2022-11-11T10:02:17;100630.13;;;24.18;88.49
18145;BME280;14857;41.200;-8.326;2022-11-11T10:05:08;100619.38;;;22.73;98.81
18145;BME280;14857;41.200;-8.326;2022-11-11T10:08:00;100625.47;;;25.65;88.09
18145;BME280;14857;41.200;-8.326;2022-11-11T10:10:52;100624.06;;;26.18;83.57
18145;BME280;14857;41.200;-8.326;2022-11-11T10:13:40;100627.66;;;27.74;75.61
18145;BME280;14857;41.200;-8.326;2022-11-11T10:16:32;100616.06;;;25.96;83.50
18145;BME280;14857;41.200;-8.326;2022-11-11T10:19:28;100610.53;;;26.04;83.60
18145;BME280;14857;41.200;-8.326;2022-11-11T10:22:21;100609.94;;;23.24;93.84
18145;BME280;14857;41.200;-8.326;2022-11-11T10:25:19;100610.84;;;21.50;100.00
18145;BME280;14857;41.200;-8.326;2022-11-11T10:28:15;100603.41;;;22.57;100.00
18145;BME280;14857;41.200;-8.326;2022-11-11T10:31:08;100615.94;;;22.95;99.93
18145;BME280;14857;41.200;-8.326;2022-11-11T10:34:02;100609.47;;;23.51;96.88
18145;BME280;14857;41.200;-8.326;2022-11-11T10:36:53;100607.97;;;24.09;94.48
18145;BME280;14857;41.200;-8.326;2022-11-11T10:39:53;100601.59;;;28.46;76.04
18145;BME280;14857;41.200;-8.326;2022-11-11T10:42:42;100600.78;;;28.26;71.47
18145;BME280;14857;41.200;-8.326;2022-11-11T10:45:38;100592.81;;;28.71;69.06
18145;BME280;14857;41.200;-8.326;2022-11-11T10:48:37;100604.75;;;28.94;68.45
18145;BME280;14857;41.200;-8.326;2022-11-11T10:51:30;100600.31;;;26.42;74.59
18145;BME280;14857;41.200;-8.326;2022-11-11T10:54:22;100594.28;;;25.21;76.29
18145;BME280;14857;41.200;-8.326;2022-11-11T10:57:16;100594.19;;;24.35;81.76
18145;BME280;14857;41.200;-8.326;2022-11-11T11:00:09;100595.75;;;25.24;81.80
18145;BME280;14857;41.200;-8.326;2022-11-11T11:03:06;100585.72;;;26.17;76.27
18145;BME280;14857;41.200;-8.326;2022-11-11T11:06:04;100581.03;;;26.26;73.74
18145;BME280;14857;41.200;-8.326;2022-11-11T11:08:54;100585.03;;;25.02;78.20
18145;BME280;14857;41.200;-8.326;2022-11-11T11:11:47;100569.72;;;25.75;75.94
18145;BME280;14857;41.200;-8.326;2022-11-11T11:14:40;100566.59;;;27.22;72.30
18145;BME280;14857;41.200;-8.326;2022-11-11T11:17:31;100575.16;;;27.97;69.73
18145;BME280;14857;41.200;-8.326;2022-11-11T11:20:23;100558.25;;;31.20;58.78
18145;BME280;14857;41.200;-8.326;2022-11-11T11:23:10;100580.09;;;33.16;51.67
18145;BME280;14857;41.200;-8.326;2022-11-11T11:25:57;100569.16;;;30.47;52.93
18145;BME280;14857;41.200;-8.326;2022-11-11T11:28:54;100559.63;;;30.02;55.96
18145;BME280;14857;41.200;-8.326;2022-11-11T11:31:41;100555.50;;;30.42;54.57
18145;BME280;14857;41.200;-8.326;2022-11-11T11:34:46;100554.69;;;31.08;56.44
18145;BME280;14857;41.200;-8.326;2022-11-11T11:37:47;100553.41;;;30.44;52.40
18145;BME280;14857;41.200;-8.326;2022-11-11T11:40:46;100550.28;;;28.28;57.89
18145;BME280;14857;41.200;-8.326;2022-11-11T11:43:35;100549.88;;;28.82;64.31
18145;BME280;14857;41.200;-8.326;2022-11-11T11:46:27;100548.97;;;26.93;63.54
18145;BME280;14857;41.200;-8.326;2022-11-11T11:49:24;100533.16;;;27.50;62.77
18145;BME280;14857;41.200;-8.326;2022-11-11T11:52:19;100517.25;;;28.65;60.28
18145;BME280;14857;41.200;-8.326;2022-11-11T11:55:13;100522.88;;;29.83;61.38
18145;BME280;14857;41.200;-8.326;2022-11-11T11:58:19;100520.16;;;31.21;56.45
18145;BME280;14857;41.200;-8.326;2022-11-11T12:01:12;100512.22;;;31.38;54.38
18145;BME280;14857;41.200;-8.326;2022-11-11T12:04:33;100510.03;;;32.16;49.95
18145;BME280;14857;41.200;-8.326;2022-11-11T12:07:40;100515.13;;;29.93;51.74
18145;BME280;14857;41.200;-8.326;2022-11-11T12:10:41;100505.44;;;26.56;60.17
18145;BME280;14857;41.200;-8.326;2022-11-11T12:13:37;100498.00;;;24.56;70.74
18145;BME280;14857;41.200;-8.326;2022-11-11T12:16:33;100504.25;;;24.13;78.58
18145;BME280;14857;41.200;-8.326;2022-11-11T12:19:36;100494.69;;;22.75;85.90
18145;BME280;14857;41.200;-8.326;2022-11-11T12:22:56;100488.84;;;22.80;91.54
18145;BME280;14857;41.200;-8.326;2022-11-11T12:25:53;100480.75;;;24.23;85.21
18145;BME280;14857;41.200;-8.326;2022-11-11T12:29:01;100487.59;;;23.59;87.11
18145;BME280;14857;41.200;-8.326;2022-11-11T12:32:01;100473.78;;;23.99;84.30
18145;BME280;14857;41.200;-8.326;2022-11-11T12:35:05;100470.31;;;23.84;88.20
18145;BME280;14857;41.200;-8.326;2022-11-11T12:38:11;100464.78;;;24.29;85.09
18145;BME280;14857;41.200;-8.326;2022-11-11T12:41:13;100453.22;;;23.18;88.79
18145;BME280;14857;41.200;-8.326;2022-11-11T12:44:04;100459.59;;;23.55;86.84
18145;BME280;14857;41.200;-8.326;2022-11-11T12:47:06;100434.94;;;21.76;96.81
18145;BME280;14857;41.200;-8.326;2022-11-11T12:50:10;100441.28;;;21.75;100.00
18145;BME280;14857;41.200;-8.326;2022-11-11T12:53:13;100445.34;;;21.14;100.00
18145;BME280;14857;41.200;-8.326;2022-11-11T12:56:10;100453.16;;;21.24;100.00
18145;BME280;14857;41.200;-8.326;2022-11-11T12:59:07;100445.56;;;20.47;100.00
18145;BME280;14857;41.200;-8.326;2022-11-11T13:02:15;100451.59;;;20.23;100.00
18145;BME280;14857;41.200;-8.326;2022-11-11T13:05:12;100450.84;;;20.30;100.00
18145;BME280;14857;41.200;-8.326;2022-11-11T13:08:41;100428.72;;;20.22;100.00
18145;BME280;14857;41.200;-8.326;2022-11-11T13:11:38;100436.81;;;20.20;100.00
18145;BME280;14857;41.200;-8.326;2022-11-11T13:14:46;100447.44;;;20.20;100.00
18145;BME280;14857;41.200;-8.326;2022-11-11T13:17:35;100429.09;;;19.93;100.00
18145;BME280;14857;41.200;-8.326;2022-11-11T13:20:35;100435.91;;;20.04;100.00
18145;BME280;14857;41.200;-8.326;2022-11-11T13:23:26;100436.75;;;19.96;100.00
18145;BME280;14857;41.200;-8.326;2022-11-11T13:26:23;100421.72;;;19.79;100.00
18145;BME280;14857;41.200;-8.326;2022-11-11T13:29:40;100420.50;;;20.07;100.00
18145;BME280;14857;41.200;-8.326;2022-11-11T13:32:36;100427.88;;;20.21;100.00
18145;BME280;14857;41.200;-8.326;2022-11-11T13:35:30;100421.22;;;20.91;100.00
18145;BME280;14857;41.200;-8.326;2022-11-11T13:38:27;100417.97;;;20.39;100.00
18145;BME280;14857;41.200;-8.326;2022-11-11T13:41:22;100409.91;;;20.65;100.00
18145;BME280;14857;41.200;-8.326;2022-11-11T13:44:20;100419.38;;;20.60;100.00
18145;BME280;14857;41.200;-8.326;2022-11-11T13:47:14;100409.25;;;20.13;100.00
18145;BME280;14857;41.200;-8.326;2022-11-11T13:50:06;100416.75;;;20.18;100.00
18145;BME280;14857;41.200;-8.326;2022-11-11T13:52:59;100417.53;;;20.10;100.00
18145;BME280;14857;41.200;-8.326;2022-11-11T13:55:49;100398.94;;;20.10;100.00
18145;BME280;14857;41.200;-8.326;2022-11-11T13:58:40;100396.41;;;20.42;100.00
18145;BME280;14857;41.200;-8.326;2022-11-11T14:01:37;100399.91;;;20.43;100.00
18145;BME280;14857;41.200;-8.326;2022-11-11T14:04:27;100394.78;;;20.82;100.00
18145;BME280;14857;41.200;-8.326;2022-11-11T14:07:46;100390.50;;;20.23;100.00
18145;BME280;14857;41.200;-8.326;2022-11-11T14:10:55;100378.91;;;20.16;100.00
18145;BME280;14857;41.200;-8.326;2022-11-11T14:13:43;100390.91;;;20.28;100.00
18145;BME280;14857;41.200;-8.326;2022-11-11T14:17:03;100391.47;;;20.06;100.00
18145;BME280;14857;41.200;-8.326;2022-11-11T14:19:50;100396.47;;;20.09;100.00
18145;BME280;14857;41.200;-8.326;2022-11-11T14:22:37;100383.09;;;19.84;100.00
18145;BME280;14857;41.200;-8.326;2022-11-11T14:25:26;100381.66;;;19.98;100.00
18145;BME280;14857;41.200;-8.326;2022-11-11T14:28:21;100397.16;;;19.77;100.00
18145;BME280;14857;41.200;-8.326;2022-11-11T14:31:49;100381.03;;;20.12;100.00
18145;BME280;14857;41.200;-8.326;2022-11-11T14:35:01;100389.94;;;19.95;100.00
18145;BME280;14857;41.200;-8.326;2022-11-11T14:38:28;100374.00;;;19.95;100.00
18145;BME280;14857;41.200;-8.326;2022-11-11T14:41:37;100379.19;;;20.05;100.00
18145;BME280;14857;41.200;-8.326;2022-11-11T14:44:42;100355.28;;;20.05;100.00
18145;BME280;14857;41.200;-8.326;2022-11-11T14:47:32;100368.75;;;19.69;100.00
18145;BME280;14857;41.200;-8.326;2022-11-11T14:50:47;100388.78;;;19.98;100.00